Masvingo, Zimbabwe
Current Conditions -  °F | °C
As of 5:00 PM on Tuesday 21 Oct 2014 (Local Time) from FVHA Reporting Station
Clear Clear  
Wind Chill: 82°   Ceiling: Unl
Heat Index: 82°   Visibility: 6mi
Dew Point: 28°   Wind: 9mph
Humidity: 14%   Direction: 140°SE
Pressure: 30.18"   Gusts: NA
Location:  20.06°S, 30.82°E
Report Text: FVHA 211500Z 14008KT 110V170 CAVOK 28/M02 Q1022 NOSIG
Loading
Personal Weather Stations






























Interactive Weather Map
Tropical Storm Tracking
New forecast layout! Learn more

10-Day Weather Forecast

Advertisements
Track Severe Weather on mobile